createdAt,value
2019-05-10T05:09:29.438Z,45.50
2019-05-10T05:11:58.242Z,45.60
2019-05-10T05:14:27.067Z,45.70
2019-05-10T05:16:55.897Z,45.60
2019-05-10T05:19:24.645Z,45.60
2019-05-10T05:21:53.511Z,45.40
2019-05-10T05:24:22.846Z,45.50
2019-05-10T05:26:51.113Z,45.50
2019-05-10T05:29:19.723Z,45.50
2019-05-10T05:31:53.801Z,45.50
2019-05-10T05:34:17.260Z,45.40
2019-05-10T05:36:45.726Z,45.30
2019-05-10T05:39:14.828Z,45.30
2019-05-10T05:41:48.981Z,45.40
2019-05-10T05:44:12.206Z,45.80
2019-05-10T05:46:41.041Z,45.80
2019-05-10T05:49:09.912Z,45.90
2019-05-10T05:51:39.006Z,46.00
2019-05-10T05:54:07.805Z,45.90
2019-05-10T05:56:36.614Z,45.90
2019-05-10T05:59:08.651Z,46.30
2019-05-10T06:01:34.192Z,46.00
2019-05-10T06:04:06.314Z,45.80
2019-05-10T06:06:32.018Z,45.60
2019-05-10T06:09:01.676Z,45.50
2019-05-10T06:11:35.416Z,45.40
2019-05-10T06:14:03.894Z,45.40
2019-05-10T06:16:27.353Z,45.30
2019-05-10T06:18:55.809Z,45.20
2019-05-10T06:21:26.515Z,45.20
2019-05-10T06:23:53.037Z,45.10
2019-05-10T06:26:28.039Z,45.00
2019-05-10T06:29:03.331Z,44.90
2019-05-10T06:31:19.766Z,44.80
2019-05-10T06:33:48.485Z,45.40
2019-05-10T06:36:17.602Z,44.80
2019-05-10T06:38:46.042Z,44.70
2019-05-10T06:41:16.961Z,44.50
2019-05-10T06:43:45.833Z,44.60
2019-05-10T06:46:12.727Z,44.90
2019-05-10T06:48:41.214Z,45.00
2019-05-10T06:51:12.327Z,45.10
2019-05-10T06:53:42.334Z,45.10
2019-05-10T06:56:07.030Z,45.00
2019-05-10T06:58:38.337Z,45.10
2019-05-10T07:01:04.804Z,45.00
2019-05-10T07:03:33.641Z,44.90
2019-05-10T07:06:02.779Z,44.90
2019-05-10T07:08:43.318Z,45.10
2019-05-10T07:11:00.705Z,44.90
2019-05-10T07:13:29.446Z,45.00
2019-05-10T07:15:58.251Z,44.90
2019-05-10T07:18:26.738Z,44.90
2019-05-10T07:21:01.073Z,44.80
2019-05-10T07:23:24.343Z,44.50
2019-05-10T07:25:52.818Z,44.60
2019-05-10T07:28:21.882Z,44.40
2019-05-10T07:33:19.290Z,43.90
2019-05-10T07:35:48.577Z,43.80
2019-05-10T07:38:16.666Z,43.90
2019-05-10T07:40:45.577Z,43.90
2019-05-10T07:43:24.640Z,43.80
2019-05-10T07:45:42.758Z,43.60
2019-05-10T07:48:11.578Z,43.60
2019-05-10T07:50:42.605Z,43.40
2019-05-10T07:53:08.782Z,43.40
2019-05-10T07:55:37.287Z,43.30
2019-05-10T07:58:07.057Z,43.30
2019-05-10T08:00:37.906Z,43.20
2019-05-10T08:03:13.196Z,43.20
2019-05-10T08:05:32.417Z,43.00
2019-05-10T08:08:01.305Z,42.90
2019-05-10T08:10:29.791Z,42.80
2019-05-10T08:12:59.559Z,42.80
2019-05-10T08:15:30.504Z,42.90
2019-05-10T08:17:55.826Z,42.90
2019-05-10T08:20:41.038Z,42.80
2019-05-10T08:22:53.513Z,42.50
2019-05-10T08:25:23.060Z,42.00
2019-05-10T08:27:55.114Z,41.70
2019-05-10T08:30:33.241Z,41.50
2019-05-10T08:33:09.380Z,41.50
2019-05-10T08:35:29.761Z,41.30
2019-05-10T08:37:58.273Z,41.40
2019-05-10T08:40:34.284Z,41.50
2019-05-10T08:43:06.539Z,41.40
2019-05-10T08:45:24.214Z,41.90
2019-05-10T08:48:01.050Z,41.50
2019-05-10T08:50:42.586Z,42.10
2019-05-10T08:52:56.289Z,41.30
2019-05-10T08:55:19.207Z,41.60
2019-05-10T08:57:49.443Z,41.30
2019-05-10T09:00:16.574Z,41.00
2019-05-10T09:02:45.040Z,41.10
2019-05-10T09:05:13.745Z,40.90
2019-05-10T09:07:42.969Z,41.10
2019-05-10T09:10:12.804Z,41.10
2019-05-10T09:12:41.714Z,40.80
2019-05-10T09:15:10.197Z,40.70
2019-05-10T09:17:36.477Z,40.70
2019-05-10T09:20:05.655Z,40.60
2019-05-10T09:22:38.547Z,40.50
2019-05-10T09:25:03.518Z,40.50
2019-05-10T09:27:33.401Z,40.70
2019-05-10T09:30:03.005Z,40.70
2019-05-10T09:32:32.836Z,40.70
2019-05-10T09:34:59.706Z,40.40
2019-05-10T09:37:27.274Z,40.60
2019-05-10T09:40:05.518Z,40.60
2019-05-10T09:42:26.470Z,40.60
2019-05-10T09:44:53.241Z,40.60
2019-05-10T09:47:22.341Z,40.70
2019-05-10T09:49:56.878Z,40.50
2019-05-10T09:52:19.744Z,41.10
2019-05-10T09:54:49.615Z,40.50
2019-05-10T09:57:17.478Z,40.60
2019-05-10T09:59:47.005Z,40.70
2019-05-10T10:02:17.387Z,40.90
2019-05-10T10:04:43.703Z,40.70
2019-05-10T10:07:12.598Z,40.80
2019-05-10T10:09:44.714Z,40.90
2019-05-10T10:12:10.346Z,40.70
2019-05-10T10:14:43.128Z,40.60
2019-05-10T10:17:08.299Z,40.70
2019-05-10T10:19:37.601Z,40.70
2019-05-10T10:22:05.737Z,40.60
2019-05-10T10:24:33.439Z,40.60
2019-05-10T10:27:02.529Z,40.60
2019-05-10T10:29:34.157Z,41.30
2019-05-10T10:32:00.209Z,40.00
2019-05-10T10:34:32.637Z,40.60
2019-05-10T10:36:58.136Z,40.40
2019-05-10T10:39:27.719Z,40.30
2019-05-10T10:41:56.922Z,40.30
2019-05-10T10:44:23.491Z,40.10
2019-05-10T10:46:51.969Z,40.30
2019-05-10T10:49:23.161Z,40.20
2019-05-10T10:51:49.312Z,40.10
2019-05-10T10:54:22.489Z,40.50
2019-05-10T10:56:48.229Z,40.20
2019-05-10T10:59:15.376Z,40.40
2019-05-10T11:01:50.173Z,40.30
2019-05-10T11:04:16.165Z,40.10
2019-05-10T11:06:41.636Z,40.60
2019-05-10T11:09:10.351Z,40.20
2019-05-10T11:11:43.906Z,40.60
2019-05-10T11:14:08.066Z,40.30
2019-05-10T11:16:36.870Z,40.20
2019-05-10T11:19:13.225Z,40.20
2019-05-10T11:21:34.154Z,40.00
2019-05-10T11:24:02.911Z,40.10
2019-05-10T11:26:32.920Z,40.00
2019-05-10T11:29:01.330Z,40.00
2019-05-10T11:31:31.108Z,39.90
2019-05-10T11:34:00.922Z,40.00
2019-05-10T11:36:26.418Z,39.70
2019-05-10T11:38:58.453Z,39.60
2019-05-10T11:41:24.761Z,40.50
2019-05-10T11:43:57.803Z,39.80
2019-05-10T11:46:21.679Z,39.80
2019-05-10T11:48:51.144Z,40.00
2019-05-10T11:51:21.052Z,40.00
2019-05-10T11:53:54.637Z,40.00
2019-05-10T11:56:17.614Z,40.00
2019-05-10T11:58:54.957Z,39.80
2019-05-10T12:03:44.007Z,40.20
2019-05-10T12:06:12.844Z,40.10
2019-05-10T12:08:42.010Z,39.90
2019-05-10T12:11:25.025Z,39.80
2019-05-10T12:13:38.604Z,40.10
2019-05-10T12:16:07.338Z,40.60
2019-05-10T12:18:36.578Z,40.20
2019-05-10T12:21:09.792Z,40.10
2019-05-10T12:23:33.125Z,40.20
2019-05-10T12:25:59.687Z,39.70
2019-05-10T12:27:12.808Z,40.00
2019-05-10T12:28:35.390Z,40.30
2019-05-10T12:31:01.301Z,40.30
2019-05-10T12:33:27.744Z,40.20
2019-05-10T12:35:55.526Z,40.30
2019-05-10T12:38:29.611Z,40.10
2019-05-10T12:40:52.889Z,40.40
2019-05-10T12:43:21.888Z,40.30
2019-05-10T12:45:51.781Z,40.40
2019-05-10T12:48:23.170Z,40.10
2019-05-10T12:50:48.006Z,40.10
2019-05-10T12:53:18.474Z,39.90
2019-05-10T12:55:45.301Z,40.10
2019-05-10T12:58:14.408Z,40.10
2019-05-10T13:00:46.329Z,40.00
2019-05-10T13:03:13.318Z,39.90
2019-05-10T13:05:51.949Z,39.80
2019-05-10T13:08:09.329Z,39.90
2019-05-10T13:10:43.270Z,39.80
2019-05-10T13:13:07.425Z,39.80
2019-05-10T13:15:36.198Z,39.70
2019-05-10T13:18:04.690Z,39.60
2019-05-10T13:20:36.614Z,39.60
2019-05-10T13:23:02.289Z,39.50
2019-05-10T13:25:31.309Z,39.40
2019-05-10T13:27:59.778Z,39.40
2019-05-10T13:30:29.888Z,39.30
2019-05-10T13:32:58.639Z,39.40
2019-05-10T13:35:25.252Z,39.40
2019-05-10T13:37:57.010Z,39.70
2019-05-10T13:40:22.603Z,39.60
2019-05-10T13:42:51.502Z,39.60
2019-05-10T13:45:19.992Z,39.80
2019-05-10T13:47:48.669Z,39.60
2019-05-10T13:50:17.156Z,39.70
2019-05-10T13:52:45.633Z,39.70
2019-05-10T13:55:14.110Z,40.00
2019-05-10T13:57:42.609Z,40.00
2019-05-10T14:00:11.097Z,39.90
2019-05-10T14:02:39.565Z,39.90
2019-05-10T14:05:11.957Z,40.10
2019-05-10T14:07:36.802Z,40.00
2019-05-10T14:10:05.328Z,40.10
2019-05-10T14:12:33.986Z,40.10
2019-05-10T14:15:08.607Z,40.20
2019-05-10T14:17:31.676Z,40.10
2019-05-10T14:20:00.160Z,40.10
2019-05-10T14:22:28.658Z,40.10
2019-05-10T14:24:59.186Z,40.10
2019-05-10T14:27:29.784Z,39.90
2019-05-10T14:29:54.561Z,40.00
2019-05-10T14:32:23.370Z,39.70
2019-05-10T14:34:52.218Z,40.10
2019-05-10T14:37:21.657Z,39.90
2019-05-10T14:39:49.188Z,39.80
2019-05-10T14:42:24.254Z,39.70
2019-05-10T14:44:46.496Z,39.90
2019-05-10T14:47:15.548Z,39.70
2019-05-10T14:52:12.639Z,39.90
2019-05-10T14:54:44.027Z,40.10
2019-05-10T14:57:10.510Z,40.60
2019-05-10T14:59:39.031Z,40.00
2019-05-10T15:02:07.790Z,39.90
2019-05-10T15:04:46.328Z,39.80
2019-05-10T15:07:08.744Z,39.60
2019-05-10T15:09:33.356Z,39.60
2019-05-10T15:12:02.074Z,39.50
2019-05-10T15:14:30.559Z,39.60
2019-05-10T15:16:59.059Z,39.50
2019-05-10T15:21:56.150Z,39.60
2019-05-10T15:24:24.633Z,39.40
2019-05-10T15:26:53.389Z,39.40
2019-05-10T15:29:24.474Z,39.30
2019-05-10T15:31:50.451Z,39.50
2019-05-10T15:34:18.929Z,39.70
2019-05-10T15:36:47.414Z,39.60
2019-05-10T15:39:15.901Z,39.20
2019-05-10T15:41:44.707Z,39.20
2019-05-10T15:44:13.570Z,39.30
2019-05-10T15:46:42.552Z,39.20
2019-05-10T15:49:13.493Z,39.10
2019-05-10T15:51:39.375Z,39.00
2019-05-10T15:54:08.257Z,39.10
2019-05-10T15:56:41.431Z,39.00
2019-05-10T15:59:05.724Z,38.90
2019-05-10T16:01:34.452Z,39.10
2019-05-10T16:04:03.257Z,38.90
2019-05-10T16:06:32.440Z,38.80
2019-05-10T16:09:02.924Z,39.00
2019-05-10T16:11:29.035Z,38.90
2019-05-10T16:14:00.236Z,38.80
2019-05-10T16:16:30.424Z,38.60
2019-05-10T16:18:54.466Z,38.60
2019-05-10T16:21:22.971Z,38.70
2019-05-10T16:23:51.446Z,38.70
2019-05-10T16:26:23.088Z,38.40
2019-05-10T16:28:53.069Z,38.50
2019-05-10T16:31:17.582Z,38.30
2019-05-10T16:33:48.220Z,38.50
2019-05-10T16:36:14.707Z,38.40
2019-05-10T16:38:43.157Z,38.30
2019-05-10T16:41:11.621Z,38.20
2019-05-10T16:43:40.439Z,38.10
2019-05-10T16:46:08.934Z,38.10
2019-05-10T16:48:37.582Z,38.10
2019-05-10T16:51:10.207Z,37.80
2019-05-10T16:53:37.821Z,37.80
2019-05-10T16:56:03.668Z,37.60
2019-05-10T17:01:01.181Z,38.20
2019-05-10T17:03:29.672Z,37.50
2019-05-10T17:05:58.714Z,37.60
2019-05-10T17:08:30.661Z,37.40
2019-05-10T17:10:55.123Z,37.10
2019-05-10T17:13:24.130Z,37.80
2019-05-10T17:15:52.952Z,37.10
2019-05-10T17:18:24.077Z,37.10
2019-05-10T17:20:50.815Z,37.00
2019-05-10T17:23:18.671Z,37.00
2019-05-10T17:25:47.160Z,37.50
2019-05-10T17:28:15.728Z,36.90
2019-05-10T17:33:12.458Z,37.00
2019-05-10T17:35:42.222Z,36.80
2019-05-10T17:38:14.048Z,36.70
2019-05-10T17:40:42.347Z,36.70
2019-05-10T17:43:07.775Z,36.60
2019-05-10T17:45:40.588Z,36.50
2019-05-10T17:48:08.557Z,36.40
2019-05-10T17:50:33.642Z,36.40
2019-05-10T17:53:02.094Z,36.70
2019-05-10T17:55:30.925Z,36.50
2019-05-10T17:57:59.677Z,36.50
2019-05-10T18:00:28.501Z,36.60
2019-05-10T18:02:57.337Z,36.40
2019-05-10T18:05:25.843Z,36.30
2019-05-10T18:07:54.321Z,36.60
2019-05-10T18:10:23.162Z,36.60
2019-05-10T18:12:57.401Z,36.70
2019-05-10T18:15:20.385Z,36.60
2019-05-10T18:17:49.246Z,36.50
2019-05-10T18:20:17.995Z,36.50
2019-05-10T18:22:46.823Z,36.50
2019-05-10T18:25:20.355Z,36.50
2019-05-10T18:27:43.766Z,36.50
2019-05-10T18:30:12.269Z,36.70
2019-05-10T18:32:40.737Z,36.60
2019-05-10T18:35:14.809Z,36.50
2019-05-10T18:37:38.228Z,36.60
2019-05-10T18:40:06.811Z,36.70
2019-05-10T18:42:35.290Z,36.70
2019-05-10T18:45:04.269Z,36.70
2019-05-10T18:47:32.742Z,36.90
2019-05-10T18:50:01.503Z,36.80
2019-05-10T18:52:29.986Z,36.90
2019-05-10T18:54:58.477Z,37.00
2019-05-10T18:57:27.135Z,37.00
2019-05-10T18:59:56.605Z,37.10
2019-05-10T19:02:25.566Z,37.20
2019-05-10T19:04:54.432Z,37.30
2019-05-10T19:07:22.870Z,37.50
2019-05-10T19:09:51.722Z,37.40
2019-05-10T19:12:22.729Z,37.50
2019-05-10T19:14:49.254Z,37.50
2019-05-10T19:17:17.723Z,37.60
2019-05-10T19:19:46.259Z,37.80
2019-05-10T19:22:14.737Z,37.80
2019-05-10T19:24:43.237Z,37.80
2019-05-10T19:27:11.886Z,37.80
2019-05-10T19:29:45.561Z,37.90
2019-05-10T19:32:11.383Z,37.90
2019-05-10T19:34:37.682Z,38.10
2019-05-10T19:37:06.536Z,38.10
2019-05-10T19:39:35.015Z,38.10
2019-05-10T19:42:06.028Z,38.10
2019-05-10T19:44:34.744Z,38.10
2019-05-10T19:47:00.827Z,38.20
2019-05-10T19:49:29.574Z,38.30
2019-05-10T19:51:58.053Z,38.40
2019-05-10T19:54:26.564Z,38.40
2019-05-10T19:56:55.579Z,38.40
2019-05-10T19:59:23.462Z,38.40
2019-05-10T20:01:52.211Z,38.40
2019-05-10T20:04:20.698Z,38.50
2019-05-10T20:06:49.498Z,38.40
2019-05-10T20:09:17.983Z,38.50
2019-05-10T20:11:46.534Z,38.50
2019-05-10T20:14:15.392Z,38.50
2019-05-10T20:16:52.882Z,38.60
2019-05-10T20:19:12.318Z,38.60
2019-05-10T20:21:40.798Z,38.60
2019-05-10T20:24:09.538Z,39.30
2019-05-10T20:26:38.025Z,38.60
2019-05-10T20:29:06.846Z,38.60
2019-05-10T20:31:35.694Z,38.70
2019-05-10T20:34:04.501Z,38.70
2019-05-10T20:36:33.386Z,38.70
2019-05-10T20:39:01.900Z,38.70
2019-05-10T20:41:30.950Z,38.70
2019-05-10T20:43:59.431Z,38.80
2019-05-10T20:46:27.956Z,38.80
2019-05-10T20:48:57.053Z,38.70
2019-05-10T20:51:25.547Z,38.80
2019-05-10T20:53:54.353Z,38.80
2019-05-10T20:56:23.101Z,38.80
